Time;durP1;ratioP1;P1;durP2;ratioP2;P2;SDS_P1;SDS_P2;PMS_P1;PMS_P2;Temp;Humidity;BMP_temperature;BMP_pressure;BME280_temperature;BME280_humidity;BME280_pressure;Samples;Min_cycle;Max_cycle;Signal;HPM_P1;HPM_P2
2022/11/06 00:01:22;;;;;;;11.60;5.38;;;;;;;8.66;88.78;101376.84;5063921;28;20037;-77
2022/11/06 00:03:51;;;;;;;12.02;6.47;;;;;;;8.62;88.78;101370.25;5045879;28;20062;-76
2022/11/06 00:09:04;;;;;;;10.32;5.03;;;;;;;8.64;89.03;101373.56;5041004;28;20043;-77
2022/11/06 00:11:30;;;;;;;12.52;5.15;;;;;;;8.61;88.68;101369.41;5049722;28;20043;-77
2022/11/06 00:13:55;;;;;;;11.52;4.75;;;;;;;8.62;89.17;101380.59;5046656;28;20052;-77
2022/11/06 00:16:21;;;;;;;10.23;4.95;;;;;;;8.56;88.83;101368.06;5050096;28;20037;-77
2022/11/06 00:18:47;;;;;;;10.43;5.15;;;;;;;8.58;89.30;101376.53;5046964;28;20033;-77
2022/11/06 00:21:17;;;;;;;8.77;4.30;;;;;;;8.57;89.32;101372.28;5057854;28;20040;-77
2022/11/06 00:23:43;;;;;;;15.70;5.20;;;;;;;8.56;89.33;101370.66;5044652;28;20024;-77
2022/11/06 00:26:12;;;;;;;15.85;5.28;;;;;;;8.55;89.17;101371.56;5048975;28;20025;-77
2022/11/06 00:28:38;;;;;;;10.00;4.88;;;;;;;8.55;89.32;101379.34;5045957;28;20037;-77
2022/11/06 00:31:06;;;;;;;9.73;5.03;;;;;;;8.51;89.31;101379.50;5045587;28;20041;-77
2022/11/06 00:33:32;;;;;;;12.40;5.35;;;;;;;8.52;89.67;101375.16;5047131;28;20044;-77
2022/11/06 00:35:58;;;;;;;9.07;5.03;;;;;;;8.49;89.76;101363.28;5044267;28;20037;-77
2022/11/06 00:38:24;;;;;;;11.60;5.68;;;;;;;8.52;89.32;101359.66;5046121;28;20029;-77
2022/11/06 00:40:49;;;;;;;9.98;5.68;;;;;;;8.55;89.63;101366.41;5037616;28;20098;-76
2022/11/06 00:43:14;;;;;;;12.00;4.97;;;;;;;8.54;89.38;101362.13;5045132;28;20016;-77
2022/11/06 00:45:40;;;;;;;10.15;5.13;;;;;;;8.52;89.79;101350.16;5040037;28;20389;-77
2022/11/06 00:48:05;;;;;;;10.07;5.40;;;;;;;8.50;90.20;101336.50;5046531;28;20024;-77
2022/11/06 00:50:32;;;;;;;10.15;5.90;;;;;;;8.50;89.78;101336.50;5047780;28;20041;-77
2022/11/06 00:52:58;;;;;;;14.18;5.25;;;;;;;8.51;89.90;101342.50;5046134;28;20017;-76
2022/11/06 00:55:23;;;;;;;12.23;5.00;;;;;;;8.48;89.96;101343.50;5047064;28;20047;-76
2022/11/06 00:57:49;;;;;;;8.55;4.93;;;;;;;8.48;89.86;101340.91;5045166;28;20511;-77
2022/11/06 01:00:16;;;;;;;9.48;4.75;;;;;;;8.45;90.11;101343.72;5047479;28;20033;-77
2022/11/06 01:02:44;;;;;;;10.43;4.70;;;;;;;8.40;90.36;101340.59;5045006;28;20479;-77
2022/11/06 01:05:10;;;;;;;11.10;4.72;;;;;;;8.39;90.20;101338.94;5047401;28;20453;-76
2022/11/06 01:07:35;;;;;;;9.98;4.78;;;;;;;8.37;89.99;101340.81;5042198;28;20021;-77
2022/11/06 01:10:01;;;;;;;11.32;4.93;;;;;;;8.38;90.31;101332.13;5044521;28;20091;-76
2022/11/06 01:12:26;;;;;;;7.95;4.00;;;;;;;8.34;90.13;101332.38;5050325;28;20025;-77
2022/11/06 01:14:51;;;;;;;12.38;4.35;;;;;;;8.32;90.32;101335.06;5047539;28;20490;-77
2022/11/06 01:17:17;;;;;;;9.85;4.35;;;;;;;8.31;90.19;101330.81;5051659;28;20059;-77
2022/11/06 01:19:42;;;;;;;9.20;4.00;;;;;;;8.27;90.38;101333.72;5048711;28;20027;-77
2022/11/06 01:22:08;;;;;;;9.98;4.68;;;;;;;8.28;90.45;101336.19;5050611;28;20027;-77
2022/11/06 01:24:34;;;;;;;7.22;3.72;;;;;;;8.30;90.57;101329.16;5046784;28;20021;-77
2022/11/06 01:26:59;;;;;;;8.00;3.67;;;;;;;8.30;90.39;101334.31;5044024;28;20381;-76
2022/11/06 01:29:25;;;;;;;7.28;4.03;;;;;;;8.28;90.48;101320.69;5033115;28;20048;-77
2022/11/06 01:31:51;;;;;;;11.05;4.75;;;;;;;8.23;90.45;101315.81;5037783;28;20598;-76
2022/11/06 01:34:18;;;;;;;9.60;3.85;;;;;;;8.26;90.67;101319.97;5039629;28;20063;-77
2022/11/06 01:36:45;;;;;;;13.70;6.00;;;;;;;8.23;90.39;101307.22;5042514;28;20036;-77
2022/11/06 01:39:12;;;;;;;10.80;5.60;;;;;;;8.24;90.92;101320.03;5044502;28;20025;-77
2022/11/06 01:41:42;;;;;;;10.50;3.95;;;;;;;8.22;90.69;101310.75;5048046;28;20500;-77
2022/11/06 01:44:13;;;;;;;10.68;4.05;;;;;;;8.23;90.95;101312.38;5038287;28;20071;-77
2022/11/06 01:46:38;;;;;;;7.53;3.63;;;;;;;8.19;90.92;101310.91;5039395;28;20058;-77
2022/11/06 01:49:11;;;;;;;9.85;3.63;;;;;;;8.20;90.97;101310.00;5045894;28;20033;-77
2022/11/06 01:51:50;;;;;;;8.25;3.65;;;;;;;8.25;90.88;101320.88;5046140;28;20024;-78
2022/11/06 01:54:16;;;;;;;7.28;3.30;;;;;;;8.21;91.09;101303.91;5050415;28;20036;-77
2022/11/06 01:56:44;;;;;;;7.38;3.60;;;;;;;8.20;91.16;101302.25;5048474;28;20041;-77
2022/11/06 01:59:14;;;;;;;9.40;3.75;;;;;;;8.23;90.98;101307.22;5045198;28;20058;-77
2022/11/06 02:01:39;;;;;;;10.20;3.88;;;;;;;8.20;91.38;101291.91;5059988;28;20078;-77
2022/11/06 02:04:12;;;;;;;9.23;4.35;;;;;;;8.25;90.85;101305.34;5051231;28;20032;-77
2022/11/06 02:06:38;;;;;;;8.02;3.30;;;;;;;8.28;90.99;101300.00;5044653;28;20067;-76
2022/11/06 02:09:10;;;;;;;10.32;3.80;;;;;;;8.24;91.60;101298.53;5061031;28;20063;-78
2022/11/06 02:11:37;;;;;;;6.90;3.53;;;;;;;8.25;91.16;101292.44;5061535;28;20549;-77
2022/11/06 02:14:13;;;;;;;7.38;3.20;;;;;;;8.31;91.88;101294.63;5048329;28;20032;-76
2022/11/06 02:16:51;;;;;;;10.00;3.60;;;;;;;8.31;91.45;101297.22;5070190;28;20037;-77
2022/11/06 02:19:19;;;;;;;10.13;3.60;;;;;;;8.31;91.86;101289.47;5051673;28;20041;-76
2022/11/06 02:22:14;;;;;;;9.02;3.63;;;;;;;8.33;91.43;101289.38;5047515;28;20139;-77
2022/11/06 02:24:58;;;;;;;10.23;2.92;;;;;;;8.33;91.60;101287.63;5040465;28;20095;-76
2022/11/06 02:27:27;;;;;;;12.65;3.47;;;;;;;8.29;92.08;101280.16;5043972;28;20056;-77
2022/11/06 02:30:05;;;;;;;9.00;3.47;;;;;;;8.28;92.45;101289.66;5042735;28;20213;-77
2022/11/06 02:32:37;;;;;;;5.72;3.10;;;;;;;8.29;92.08;101275.81;5043599;28;20216;-77
2022/11/06 02:35:18;;;;;;;7.55;3.30;;;;;;;8.30;91.59;101272.28;5042978;28;20587;-77
2022/11/06 02:37:45;;;;;;;6.85;3.38;;;;;;;8.33;91.69;101272.13;5054904;28;20029;-78
2022/11/06 02:40:13;;;;;;;8.82;4.72;;;;;;;8.34;91.57;101266.00;5047591;28;20032;-78
2022/11/06 02:42:45;;;;;;;10.07;3.73;;;;;;;8.34;91.46;101268.59;5050188;28;20041;-77
2022/11/06 02:45:14;;;;;;;9.30;4.47;;;;;;;8.35;91.55;101262.50;5043978;28;20280;-77
2022/11/06 02:47:41;;;;;;;;;;;;;;;8.38;91.26;101254.59;5038280;28;20056;-77
2022/11/06 02:50:31;;;;;;;9.20;3.28;;;;;;;8.31;91.39;101242.94;5050360;28;19937;-77
2022/11/06 02:53:03;;;;;;;8.18;3.28;;;;;;;8.36;91.69;101251.25;5040745;28;20566;-77
2022/11/06 02:55:42;;;;;;;9.30;3.78;;;;;;;8.35;91.23;101254.75;5042819;28;20029;-77
2022/11/06 02:58:15;;;;;;;8.15;3.08;;;;;;;8.33;91.53;101256.59;5051215;28;20115;-77
2022/11/06 03:00:46;;;;;;;7.47;3.05;;;;;;;8.35;91.07;101254.75;5053009;28;20052;-77
2022/11/06 03:03:20;;;;;;;6.78;3.10;;;;;;;8.36;91.88;101261.59;5033295;28;20040;-77
2022/11/06 03:05:56;;;;;;;7.35;2.72;;;;;;;8.40;91.82;101263.06;5061752;28;20124;-77
2022/11/06 03:08:38;;;;;;;6.00;2.70;;;;;;;8.43;91.27;101275.78;5050875;28;20048;-77
2022/11/06 03:11:22;;;;;;;9.18;2.90;;;;;;;8.43;91.18;101262.88;5045265;28;20064;-79
2022/11/06 03:14:12;;;;;;;7.30;3.00;;;;;;;8.45;91.56;101261.00;5039100;28;20025;-77
2022/11/06 03:16:59;;;;;;;7.65;2.55;;;;;;;8.46;91.34;101267.81;5037976;28;20029;-77
2022/11/06 03:19:42;;;;;;;12.47;3.50;;;;;;;8.48;91.19;101260.78;5051235;28;20103;-77
2022/11/06 03:22:15;;;;;;;7.72;2.83;;;;;;;8.48;91.12;101270.31;5038823;28;20029;-77
2022/11/06 03:24:57;;;;;;;10.20;3.40;;;;;;;8.48;91.14;101265.94;5038770;28;20116;-77
2022/11/06 03:27:32;;;;;;;7.65;2.95;;;;;;;8.44;91.07;101254.19;5072032;28;20182;-77
2022/11/06 03:30:07;;;;;;;6.95;2.85;;;;;;;8.52;91.27;101275.16;5034412;28;20035;-76
2022/11/06 03:32:47;;;;;;;8.13;2.83;;;;;;;8.51;90.98;101250.25;5039790;28;20025;-77
2022/11/06 03:35:19;;;;;;;14.98;3.78;;;;;;;8.55;91.18;101255.25;5033652;28;20025;-77
2022/11/06 03:37:52;;;;;;;6.68;2.72;;;;;;;8.55;90.80;101244.91;5040870;28;20381;-77
2022/11/06 03:40:20;;;;;;;9.50;3.13;;;;;;;8.50;91.31;101235.69;5036057;28;20029;-77
2022/11/06 03:42:47;;;;;;;;;;;;;;;8.60;91.00;101247.97;5040371;28;20045;-78
2022/11/06 03:45:17;;;;;;;5.75;2.45;;;;;;;8.56;90.86;101236.19;5047687;28;19919;-77
2022/11/06 03:47:49;;;;;;;9.85;2.67;;;;;;;8.56;91.37;101236.19;5044283;28;20070;-77
2022/11/06 03:50:19;;;;;;;10.65;4.05;;;;;;;8.60;90.92;101227.28;5048066;28;20046;-76
2022/11/06 03:53:22;;;;;;;7.95;2.63;;;;;;;8.62;91.09;101230.63;5043036;28;20088;-77
2022/11/06 03:55:53;;;;;;;9.80;2.83;;;;;;;8.52;90.92;101215.72;4973881;28;20092;-76
2022/11/06 03:58:42;;;;;;;11.35;3.85;;;;;;;8.62;90.97;101221.09;4968514;28;20038;-77
2022/11/06 04:01:10;;;;;;;11.25;3.85;;;;;;;8.62;90.83;101221.09;4975566;28;20038;-77
2022/11/06 04:04:01;;;;;;;7.90;2.67;;;;;;;8.63;90.92;101216.75;4972092;28;20045;-77
2022/11/06 04:06:47;;;;;;;10.68;3.47;;;;;;;8.63;90.76;101206.41;4952655;28;20709;-77
2022/11/06 04:14:51;;;;;;;8.85;3.95;;;;;;;8.65;90.79;101194.19;4967952;28;20066;-78
2022/11/06 04:17:18;;;;;;;7.88;3.00;;;;;;;8.61;90.30;101191.00;4964129;28;20113;-77
2022/11/06 04:19:51;;;;;;;7.47;3.22;;;;;;;8.65;90.56;101194.19;4978364;28;20037;-77
2022/11/06 04:22:30;;;;;;;6.28;2.72;;;;;;;8.66;90.71;101193.25;4969200;28;20054;-78
2022/11/06 04:28:05;;;;;;;13.40;3.67;;;;;;;8.64;90.80;101184.78;4961097;28;20054;-76
2022/11/06 04:30:38;;;;;;;11.20;3.92;;;;;;;8.62;90.36;101178.91;5027934;28;20044;-77
2022/11/06 04:33:04;;;;;;;10.73;3.88;;;;;;;8.64;90.68;101193.38;5041889;28;20029;-77
2022/11/06 04:35:47;;;;;;;9.57;2.88;;;;;;;8.64;90.91;101182.22;5050032;28;20358;-77
2022/11/06 04:38:29;;;;;;;8.02;3.67;;;;;;;8.64;90.47;101187.38;5040499;28;20021;-76
2022/11/06 04:41:24;;;;;;;8.57;2.88;;;;;;;8.63;90.65;101185.72;5045885;28;20025;-80
2022/11/06 04:43:56;;;;;;;7.82;3.13;;;;;;;8.61;90.83;101182.44;5036810;28;20128;-77
2022/11/06 04:46:52;;;;;;;6.00;2.70;;;;;;;8.61;90.84;101177.25;5035806;28;20064;-78
2022/11/06 04:49:20;;;;;;;7.55;2.50;;;;;;;8.55;90.63;101168.16;5035186;28;20091;-77
2022/11/06 04:51:46;;;;;;;9.77;3.45;;;;;;;8.56;90.86;101163.81;5038581;28;20190;-77
2022/11/06 04:54:13;;;;;;;11.93;3.63;;;;;;;8.57;90.87;101165.47;5044160;28;20532;-77
2022/11/06 04:56:39;;;;;;;9.07;3.25;;;;;;;8.55;90.70;101157.00;5050335;28;20041;-76
2022/11/06 04:59:05;;;;;;;10.55;3.30;;;;;;;8.55;90.99;101147.47;5044705;28;20094;-76
2022/11/06 05:01:31;;;;;;;9.73;2.67;;;;;;;8.54;90.83;101155.31;5039825;28;20055;-77
2022/11/06 05:03:56;;;;;;;9.00;4.15;;;;;;;8.50;91.26;101150.38;5043838;28;20373;-77
2022/11/06 05:06:21;;;;;;;8.63;2.55;;;;;;;8.48;91.03;101152.22;5040373;28;20438;-76
2022/11/06 05:08:47;;;;;;;10.38;3.47;;;;;;;8.50;91.15;101159.88;5060373;28;20029;-76
2022/11/06 05:11:12;;;;;;;8.65;3.13;;;;;;;8.48;91.23;101154.78;5050508;28;20507;-76
2022/11/06 05:13:38;;;;;;;6.20;2.90;;;;;;;8.45;91.35;101152.44;5044778;28;20059;-76
2022/11/06 05:16:04;;;;;;;7.00;3.33;;;;;;;8.43;91.34;101149.13;5048159;28;20344;-77
2022/11/06 05:18:30;;;;;;;8.35;3.88;;;;;;;8.41;91.41;101144.97;5050747;28;20111;-77
2022/11/06 05:23:46;;;;;;;12.18;6.03;;;;;;;8.43;91.72;101159.47;5047035;28;20048;-77
2022/11/06 05:26:12;;;;;;;16.05;7.18;;;;;;;8.35;91.24;101146.19;5047477;28;20017;-77
2022/11/06 05:28:37;;;;;;;13.18;6.03;;;;;;;8.38;91.65;101155.53;5041830;28;20389;-77
2022/11/06 05:31:03;;;;;;;12.60;4.85;;;;;;;8.34;91.46;101149.72;5040034;28;20461;-76
2022/11/06 05:33:29;;;;;;;11.40;4.38;;;;;;;8.32;91.16;101151.59;5053263;28;20016;-77
2022/11/06 05:35:54;;;;;;;11.15;3.97;;;;;;;8.26;91.44;101141.66;5045531;28;20524;-77
2022/11/06 05:38:20;;;;;;;11.98;3.30;;;;;;;8.33;91.76;101153.22;5046527;28;20033;-77
2022/11/06 05:40:45;;;;;;;9.43;3.60;;;;;;;8.30;92.13;101148.25;5066814;28;20094;-76
2022/11/06 05:43:11;;;;;;;7.78;3.13;;;;;;;8.31;91.98;101144.72;5045317;28;20045;-77
2022/11/06 05:45:37;;;;;;;6.57;2.53;;;;;;;8.32;91.58;101145.59;5046490;28;20084;-77
2022/11/06 05:48:02;;;;;;;9.18;2.55;;;;;;;8.31;91.92;101142.16;5045296;28;20115;-77
2022/11/06 05:50:27;;;;;;;8.25;2.30;;;;;;;8.28;92.24;101129.44;5042281;28;20029;-77
2022/11/06 05:52:53;;;;;;;8.40;3.25;;;;;;;8.32;92.46;101136.06;5039323;28;20028;-77
2022/11/06 05:55:21;;;;;;;8.77;2.85;;;;;;;8.34;92.23;101134.22;5038662;28;20445;-77
2022/11/06 05:57:47;;;;;;;9.25;2.45;;;;;;;8.30;92.35;101122.41;5048895;28;20094;-77
2022/11/06 06:00:13;;;;;;;7.97;2.75;;;;;;;8.33;92.78;101124.81;5039041;28;20484;-79
2022/11/06 06:02:39;;;;;;;8.68;2.55;;;;;;;8.35;92.71;101122.94;5052311;28;20388;-77
2022/11/06 06:05:05;;;;;;;6.68;2.55;;;;;;;8.33;92.64;101117.06;5045254;28;20477;-77
2022/11/06 06:07:31;;;;;;;9.32;2.28;;;;;;;8.32;92.73;101117.16;5058447;28;20036;-78
2022/11/06 06:09:57;;;;;;;8.82;2.78;;;;;;;8.34;92.61;101113.53;5041891;28;20025;-77
2022/11/06 06:12:25;;;;;;;8.82;3.28;;;;;;;8.38;92.79;101115.00;5048696;28;20035;-78
2022/11/06 06:14:51;;;;;;;8.88;3.30;;;;;;;8.38;93.17;101109.03;5041938;28;20414;-77
2022/11/06 06:17:16;;;;;;;9.05;2.40;;;;;;;8.40;92.93;101113.16;5045001;28;20033;-78
2022/11/06 06:19:42;;;;;;;7.95;3.17;;;;;;;8.41;92.62;101114.78;5045192;28;20039;-76
2022/11/06 06:22:07;;;;;;;6.93;2.75;;;;;;;8.44;92.54;101111.19;5057495;28;20071;-77
2022/11/06 06:24:32;;;;;;;6.68;2.63;;;;;;;8.43;92.70;101107.78;5047817;28;20074;-77
2022/11/06 06:26:58;;;;;;;7.05;2.83;;;;;;;8.44;92.74;101109.44;5046252;28;20481;-77
2022/11/06 06:29:23;;;;;;;5.43;2.40;;;;;;;8.41;92.91;101094.13;5038939;28;20116;-80
2022/11/06 06:31:48;;;;;;;6.82;2.72;;;;;;;8.41;93.36;101101.03;5046330;28;20074;-77
2022/11/06 06:34:14;;;;;;;6.40;2.47;;;;;;;8.38;93.20;101089.16;5047228;28;20094;-76
2022/11/06 06:36:39;;;;;;;5.70;2.85;;;;;;;8.42;93.00;101100.09;5040101;28;20025;-77
2022/11/06 06:39:05;;;;;;;7.88;2.78;;;;;;;8.44;93.13;101104.25;5048814;28;20028;-77
2022/11/06 06:41:31;;;;;;;8.68;2.70;;;;;;;8.45;92.89;101105.91;5050869;28;20404;-76
2022/11/06 06:43:56;;;;;;;5.43;2.42;;;;;;;8.39;92.66;101095.16;5044638;28;20033;-77
2022/11/06 06:46:21;;;;;;;9.02;2.97;;;;;;;8.43;93.25;101106.94;5049815;28;20028;-77
2022/11/06 06:48:47;;;;;;;5.07;2.17;;;;;;;8.37;92.83;101087.53;5045050;28;20025;-77
2022/11/06 06:51:12;;;;;;;8.05;2.97;;;;;;;8.43;93.04;101112.94;5038576;28;20576;-77
2022/11/06 06:53:37;;;;;;;9.75;2.88;;;;;;;8.39;92.91;101101.16;5047403;28;20021;-80
2022/11/06 06:56:03;;;;;;;7.15;3.30;;;;;;;8.44;93.15;101109.44;5051267;28;20040;-76
2022/11/06 06:58:29;;;;;;;7.65;2.60;;;;;;;8.42;92.97;101085.44;5043635;28;20044;-77
2022/11/06 07:00:58;;;;;;;7.10;2.72;;;;;;;8.44;92.87;101093.09;5047040;28;20028;-76
2022/11/06 07:03:23;;;;;;;10.50;3.05;;;;;;;8.47;92.92;101088.53;5049937;28;20031;-77
2022/11/06 07:05:48;;;;;;;15.73;2.80;;;;;;;8.45;93.23;101080.06;5042203;28;20025;-77
2022/11/06 07:08:14;;;;;;;7.78;3.47;;;;;;;8.48;92.97;101085.00;5047291;28;20080;-77
2022/11/06 07:10:39;;;;;;;4.22;2.30;;;;;;;8.44;93.36;101073.25;5044569;28;20029;-77
2022/11/06 07:13:05;;;;;;;4.85;2.45;;;;;;;8.45;93.15;101069.72;5040786;28;20024;-77
2022/11/06 07:15:31;;;;;;;7.97;2.40;;;;;;;8.46;93.35;101055.84;5045992;28;20033;-80
2022/11/06 07:18:04;;;;;;;8.27;2.90;;;;;;;8.48;93.23;101064.31;5037698;28;20047;-78
2022/11/06 07:20:31;;;;;;;10.32;4.38;;;;;;;8.49;93.27;101060.84;5048393;28;20111;-77
2022/11/06 07:22:57;;;;;;;9.38;5.32;;;;;;;8.50;93.23;101062.47;5049124;28;20024;-77
2022/11/06 07:25:23;;;;;;;8.25;5.07;;;;;;;8.55;93.03;101075.09;5036022;28;20785;-77
2022/11/06 07:27:49;;;;;;;7.93;5.13;;;;;;;8.57;93.10;101073.22;5045253;28;20020;-76
2022/11/06 07:30:14;;;;;;;11.88;8.00;;;;;;;8.60;93.28;101072.16;5046185;28;20488;-77
2022/11/06 07:32:40;;;;;;;11.98;6.13;;;;;;;8.63;93.23;101077.13;5036745;28;20071;-77
2022/11/06 07:35:06;;;;;;;9.65;5.10;;;;;;;8.65;92.94;101080.44;5040822;28;20420;-77
2022/11/06 07:37:31;;;;;;;7.78;4.68;;;;;;;8.66;92.89;101066.56;5039281;28;20033;-78
2022/11/06 07:39:56;;;;;;;7.28;2.83;;;;;;;8.68;92.80;101069.88;5047147;28;20477;-77
2022/11/06 07:42:22;;;;;;;8.25;3.00;;;;;;;8.72;92.81;101068.75;5043410;28;20548;-77
2022/11/06 07:44:47;;;;;;;9.15;4.25;;;;;;;8.73;92.77;101070.41;5042040;28;20473;-77
2022/11/06 07:47:12;;;;;;;9.15;4.18;;;;;;;8.74;92.58;101070.28;5040666;28;20400;-77
2022/11/06 07:49:38;;;;;;;10.90;6.07;;;;;;;8.79;92.52;101072.56;5037503;28;20032;-78
2022/11/06 07:52:05;;;;;;;10.35;4.10;;;;;;;8.84;92.42;101082.59;5042432;28;20515;-76
2022/11/06 07:54:30;;;;;;;10.48;4.25;;;;;;;8.86;92.35;101073.78;5031102;28;20279;-77
2022/11/06 07:56:56;;;;;;;9.45;3.80;;;;;;;8.90;92.37;101072.63;5041009;28;20029;-77
2022/11/06 07:59:21;;;;;;;6.32;2.58;;;;;;;8.94;92.33;101065.47;5045621;28;20120;-77
2022/11/06 08:01:47;;;;;;;7.57;3.10;;;;;;;8.94;92.29;101060.28;5038784;28;20504;-77
2022/11/06 08:04:12;;;;;;;9.65;4.50;;;;;;;9.02;92.16;101065.75;5038296;28;20025;-77
2022/11/06 08:06:38;;;;;;;8.07;3.83;;;;;;;9.07;91.65;101060.25;5044044;28;20056;-77
2022/11/06 08:09:06;;;;;;;7.65;2.63;;;;;;;9.05;92.03;101044.81;5047867;28;20140;-77
2022/11/06 08:11:31;;;;;;;9.43;4.77;;;;;;;9.18;91.68;101065.50;5037508;28;20548;-77
2022/11/06 08:13:59;;;;;;;10.15;4.38;;;;;;;9.21;92.14;101066.09;5039047;28;20313;-77
2022/11/06 08:16:24;;;;;;;12.90;6.57;;;;;;;9.25;91.69;101057.16;5038865;28;20489;-77
2022/11/06 08:18:50;;;;;;;12.32;7.05;;;;;;;9.29;91.46;101060.38;5041372;28;20028;-77
2022/11/06 08:21:15;;;;;;;10.98;3.15;;;;;;;9.28;91.38;101054.34;5041776;28;20025;-76
2022/11/06 08:23:41;;;;;;;6.32;3.17;;;;;;;9.28;91.42;101044.00;5042026;28;20021;-76
2022/11/06 08:26:06;;;;;;;9.10;4.90;;;;;;;9.33;90.98;101048.84;5040831;28;20024;-77
2022/11/06 08:28:32;;;;;;;11.68;5.15;;;;;;;9.36;91.37;101046.03;5037754;28;20800;-77
2022/11/06 08:30:57;;;;;;;8.55;5.07;;;;;;;9.37;91.35;101037.34;5035318;28;20037;-77
2022/11/06 08:33:23;;;;;;;8.48;3.97;;;;;;;9.40;90.85;101042.28;5053673;28;20104;-77
2022/11/06 08:35:48;;;;;;;7.68;3.67;;;;;;;9.42;90.93;101034.41;5036658;28;20373;-77
2022/11/06 08:38:15;;;;;;;6.65;2.70;;;;;;;9.39;90.82;101025.09;5045269;28;20414;-76
2022/11/06 08:40:40;;;;;;;6.07;3.20;;;;;;;9.43;90.50;101023.13;5034678;28;20032;-77
2022/11/06 08:43:08;;;;;;;5.10;2.42;;;;;;;9.49;91.20;101020.91;5055318;28;20319;-76
2022/11/06 08:45:42;;;;;;;8.27;2.90;;;;;;;9.53;90.39;101026.69;5069615;28;20391;-76
2022/11/06 08:48:08;;;;;;;6.45;2.45;;;;;;;9.57;90.40;101018.56;5046021;28;20025;-77
2022/11/06 08:50:39;;;;;;;9.18;2.88;;;;;;;9.63;90.35;101008.69;5046883;28;20035;-77
2022/11/06 08:53:05;;;;;;;14.77;8.75;;;;;;;9.68;90.29;101009.16;5063698;28;20059;-77
2022/11/06 08:55:36;;;;;;;9.13;3.70;;;;;;;9.68;90.41;100991.03;5039992;28;20120;-77
2022/11/06 08:58:01;;;;;;;6.82;2.80;;;;;;;9.83;90.26;101013.22;5046693;28;20491;-77
2022/11/06 09:00:28;;;;;;;5.35;1.67;;;;;;;9.86;90.33;101002.59;5043599;28;20460;-77
2022/11/06 09:02:58;;;;;;;6.30;1.80;;;;;;;9.90;89.71;100992.84;5045686;28;20025;-76
2022/11/06 09:05:24;;;;;;;9.43;2.10;;;;;;;9.97;89.01;100994.84;5053720;28;20099;-77
2022/11/06 09:07:49;;;;;;;4.95;2.17;;;;;;;9.99;89.36;100992.97;5042945;28;20074;-77
2022/11/06 09:10:14;;;;;;;5.53;1.98;;;;;;;10.02;88.85;100992.72;5049915;28;20476;-76
2022/11/06 09:12:40;;;;;;;5.72;2.10;;;;;;;10.08;89.36;100981.88;5052120;28;20357;-76
2022/11/06 09:15:06;;;;;;;6.55;2.17;;;;;;;10.12;89.18;100977.28;5047108;28;20068;-77
2022/11/06 09:17:31;;;;;;;4.50;1.88;;;;;;;10.15;88.58;100976.22;5044038;28;20481;-78
2022/11/06 09:19:57;;;;;;;4.85;2.08;;;;;;;10.20;88.85;100968.91;5044739;28;20116;-77
2022/11/06 09:22:22;;;;;;;5.00;1.73;;;;;;;10.28;88.16;100971.78;5043406;28;20539;-78
2022/11/06 09:24:48;;;;;;;7.38;2.05;;;;;;;10.29;87.76;100957.88;5048968;28;20029;-77
2022/11/06 09:27:14;;;;;;;5.28;1.75;;;;;;;10.33;87.64;100964.47;5047223;28;20473;-77
2022/11/06 09:29:42;;;;;;;8.48;2.30;;;;;;;10.35;87.39;100958.22;5043950;28;20017;-77
2022/11/06 09:32:08;;;;;;;;;;;;;;;10.41;88.43;100946.53;5052815;28;20024;-78
2022/11/06 09:34:33;;;;;;;5.78;1.92;;;;;;;10.37;87.60;100939.94;5035089;28;19913;-77
2022/11/06 09:37:01;;;;;;;5.97;1.77;;;;;;;10.41;86.96;100941.34;5045149;28;20028;-78
2022/11/06 09:39:26;;;;;;;5.22;1.83;;;;;;;10.42;87.57;100935.22;5043949;28;20036;-77
2022/11/06 09:42:10;;;;;;;5.63;1.80;;;;;;;10.46;87.16;100939.22;5045955;28;20120;-78
2022/11/06 09:44:50;;;;;;;6.88;3.17;;;;;;;10.49;86.96;100944.16;5044924;28;20538;-77
2022/11/06 09:47:25;;;;;;;4.50;2.00;;;;;;;10.50;86.93;100945.00;5046314;28;20033;-78
2022/11/06 09:49:53;;;;;;;7.35;2.85;;;;;;;10.53;87.19;100945.56;5055749;28;20155;-77
2022/11/06 09:52:27;;;;;;;5.32;2.13;;;;;;;10.56;86.41;100950.53;5044961;28;20032;-77
2022/11/06 09:55:01;;;;;;;4.10;2.40;;;;;;;10.56;86.38;100953.13;5045092;28;20116;-78
2022/11/06 09:57:36;;;;;;;7.22;3.00;;;;;;;10.62;86.49;100944.84;5062571;28;20032;-78
2022/11/06 10:00:04;;;;;;;6.32;1.50;;;;;;;10.63;85.92;100940.47;5038778;28;20033;-78
2022/11/06 10:02:40;;;;;;;5.83;1.70;;;;;;;10.67;85.96;100946.22;5051016;28;20559;-77
2022/11/06 10:05:30;;;;;;;4.35;2.20;;;;;;;10.72;85.89;100949.28;5040094;28;20263;-79
2022/11/06 10:07:59;;;;;;;5.03;1.55;;;;;;;10.74;85.75;100945.63;5036343;28;20025;-77
2022/11/06 10:10:53;;;;;;;4.22;1.77;;;;;;;10.78;86.50;100943.59;5056732;28;20477;-77
2022/11/06 10:13:30;;;;;;;3.97;1.40;;;;;;;10.84;85.81;100940.53;5007184;28;20049;-77
2022/11/06 10:16:08;;;;;;;6.55;2.28;;;;;;;10.88;84.96;100939.31;5043497;28;20052;-78
2022/11/06 10:18:53;;;;;;;4.63;1.40;;;;;;;10.95;86.01;100943.06;5028377;28;20037;-78
2022/11/06 10:21:19;;;;;;;6.40;1.88;;;;;;;11.00;85.54;100932.31;5011357;28;20045;-77
2022/11/06 10:23:51;;;;;;;6.07;2.03;;;;;;;11.02;85.11;100920.88;5040749;28;20021;-78
2022/11/06 10:26:24;;;;;;;4.60;1.85;;;;;;;11.14;85.49;100925.03;5034815;28;20052;-78
2022/11/06 10:29:03;;;;;;;5.47;2.05;;;;;;;11.22;84.22;100921.00;5031566;28;20064;-77
2022/11/06 10:31:37;;;;;;;5.70;2.20;;;;;;;11.33;84.53;100913.13;5042410;28;20032;-78
2022/11/06 10:34:29;;;;;;;5.70;1.42;;;;;;;11.47;85.12;100915.41;5046536;28;20036;-78
2022/11/06 10:37:09;;;;;;;5.57;1.85;;;;;;;11.59;83.18;100910.97;5040235;28;20072;-78
2022/11/06 10:39:35;;;;;;;5.22;2.60;;;;;;;11.69;82.40;100920.41;5041167;28;20037;-78
2022/11/06 10:42:29;;;;;;;3.85;1.30;;;;;;;11.74;82.03;100909.63;5050902;28;20060;-78
2022/11/06 10:44:58;;;;;;;5.68;1.67;;;;;;;11.81;81.32;100909.94;5046283;28;20029;-78
2022/11/06 10:47:38;;;;;;;7.65;3.55;;;;;;;11.86;81.93;100894.81;5041564;28;20052;-78
2022/11/06 10:50:10;;;;;;;4.55;1.95;;;;;;;11.89;80.39;100894.56;5047622;28;20419;-78
2022/11/06 10:53:00;;;;;;;6.50;1.60;;;;;;;11.85;80.45;100891.38;5040452;28;20021;-78
2022/11/06 10:55:42;;;;;;;6.97;2.38;;;;;;;11.76;80.48;100873.16;5040950;28;20032;-78
2022/11/06 10:58:11;;;;;;;7.32;3.60;;;;;;;11.73;79.83;100883.78;5046237;28;20017;-78
2022/11/06 11:00:37;;;;;;;5.72;2.20;;;;;;;11.65;79.84;100872.28;5043334;28;20128;-81
2022/11/06 11:03:26;;;;;;;8.02;1.92;;;;;;;11.63;80.19;100868.97;5044281;28;20033;-78
2022/11/06 11:05:51;;;;;;;;;;;;;;;11.67;81.39;100869.56;5040490;28;20029;-78
2022/11/06 11:08:41;;;;;;;7.80;2.95;;;;;;;11.63;80.46;100868.16;5039992;28;19921;-78
2022/11/06 11:11:12;;;;;;;4.07;1.45;;;;;;;11.61;79.71;100855.31;5051208;28;20497;-80
2022/11/06 11:13:42;;;;;;;6.30;2.67;;;;;;;11.58;80.06;100855.56;5041234;28;20033;-77
2022/11/06 11:16:17;;;;;;;7.60;3.30;;;;;;;11.51;80.29;100841.44;5051186;28;20136;-78
2022/11/06 11:18:44;;;;;;;6.32;2.50;;;;;;;11.54;79.23;100849.00;5035012;28;20082;-78
2022/11/06 11:21:12;;;;;;;4.65;1.85;;;;;;;11.56;79.73;100847.09;5050178;28;20022;-77
2022/11/06 11:23:37;;;;;;;5.78;2.10;;;;;;;11.58;79.53;100845.16;5041019;28;20036;-77
2022/11/06 11:26:41;;;;;;;7.40;1.77;;;;;;;11.67;80.42;100849.59;5041632;28;20056;-78
2022/11/06 11:29:15;;;;;;;4.68;1.65;;;;;;;11.67;79.52;100839.19;5044695;28;20048;-78
2022/11/06 11:31:45;;;;;;;6.18;1.67;;;;;;;11.74;78.80;100838.66;5056017;28;20117;-78
2022/11/06 11:34:18;;;;;;;5.97;1.92;;;;;;;11.78;77.78;100840.88;5070928;28;20028;-78
2022/11/06 11:36:51;;;;;;;5.43;2.13;;;;;;;11.77;77.95;100830.63;5046662;28;20033;-77
2022/11/06 11:39:19;;;;;;;10.25;2.63;;;;;;;11.83;77.53;100827.53;5050062;28;20052;-78
2022/11/06 11:41:45;;;;;;;4.85;1.52;;;;;;;11.81;77.15;100832.81;5047129;28;20366;-78
2022/11/06 11:44:10;;;;;;;7.07;1.83;;;;;;;11.80;77.22;100817.34;5047142;28;20453;-78
2022/11/06 11:46:47;;;;;;;5.93;1.67;;;;;;;11.77;77.53;100823.66;5044353;28;20123;-78
2022/11/06 11:49:30;;;;;;;5.38;1.60;;;;;;;11.79;78.21;100815.72;5044620;28;20021;-77
2022/11/06 11:52:02;;;;;;;5.18;2.08;;;;;;;11.78;77.92;100814.06;5048321;28;20040;-78
2022/11/06 11:54:32;;;;;;;4.55;1.48;;;;;;;11.78;77.36;100801.06;5054305;28;20140;-80
2022/11/06 11:57:06;;;;;;;9.57;1.85;;;;;;;11.83;77.10;100797.16;5054722;28;20044;-77